sensor_id;sensor_type;location;lat;lon;timestamp;temperature;humidity
5962;DHT22;3007;50.770;0.250;2023-10-31T00:02:17;8.60;99.90
5962;DHT22;3007;50.770;0.250;2023-10-31T00:04:43;8.60;99.90
5962;DHT22;3007;50.770;0.250;2023-10-31T00:07:11;8.50;99.90
5962;DHT22;3007;50.770;0.250;2023-10-31T00:09:38;8.60;99.90
5962;DHT22;3007;50.770;0.250;2023-10-31T00:12:06;8.60;99.90
5962;DHT22;3007;50.770;0.250;2023-10-31T00:14:33;8.20;99.90
5962;DHT22;3007;50.770;0.250;2023-10-31T00:16:59;8.60;99.90
5962;DHT22;3007;50.770;0.250;2023-10-31T00:19:26;8.60;99.90
5962;DHT22;3007;50.770;0.250;2023-10-31T00:21:53;8.50;99.90
5962;DHT22;3007;50.770;0.250;2023-10-31T00:24:21;8.60;99.90
5962;DHT22;3007;50.770;0.250;2023-10-31T00:26:48;8.60;99.90
5962;DHT22;3007;50.770;0.250;2023-10-31T00:29:15;9.00;99.90
5962;DHT22;3007;50.770;0.250;2023-10-31T00:31:43;8.60;99.90
5962;DHT22;3007;50.770;0.250;2023-10-31T00:34:10;8.50;99.90
5962;DHT22;3007;50.770;0.250;2023-10-31T00:36:37;8.50;99.90
5962;DHT22;3007;50.770;0.250;2023-10-31T00:39:04;8.50;99.90
5962;DHT22;3007;50.770;0.250;2023-10-31T00:41:32;8.50;99.90
5962;DHT22;3007;50.770;0.250;2023-10-31T00:43:59;8.60;99.90
5962;DHT22;3007;50.770;0.250;2023-10-31T00:46:25;8.50;99.90
5962;DHT22;3007;50.770;0.250;2023-10-31T00:48:52;8.50;99.90
5962;DHT22;3007;50.770;0.250;2023-10-31T00:51:20;8.60;99.90
5962;DHT22;3007;50.770;0.250;2023-10-31T00:53:47;8.60;99.90
5962;DHT22;3007;50.770;0.250;2023-10-31T00:56:14;8.60;99.90
5962;DHT22;3007;50.770;0.250;2023-10-31T00:58:42;8.60;99.90
5962;DHT22;3007;50.770;0.250;2023-10-31T01:01:09;8.70;99.90
5962;DHT22;3007;50.770;0.250;2023-10-31T01:03:35;8.70;99.90
5962;DHT22;3007;50.770;0.250;2023-10-31T01:06:03;8.70;99.90
5962;DHT22;3007;50.770;0.250;2023-10-31T01:08:30;8.70;99.90
5962;DHT22;3007;50.770;0.250;2023-10-31T01:10:56;8.80;99.90
5962;DHT22;3007;50.770;0.250;2023-10-31T01:13:23;8.70;99.90
5962;DHT22;3007;50.770;0.250;2023-10-31T01:15:51;8.80;99.90
5962;DHT22;3007;50.770;0.250;2023-10-31T01:18:18;8.80;99.90
5962;DHT22;3007;50.770;0.250;2023-10-31T01:20:45;8.80;99.90
5962;DHT22;3007;50.770;0.250;2023-10-31T01:23:12;8.80;99.90
5962;DHT22;3007;50.770;0.250;2023-10-31T01:25:39;9.40;99.90
5962;DHT22;3007;50.770;0.250;2023-10-31T01:28:05;8.90;99.90
5962;DHT22;3007;50.770;0.250;2023-10-31T01:30:32;9.00;99.90
5962;DHT22;3007;50.770;0.250;2023-10-31T01:33:00;9.00;99.90
5962;DHT22;3007;50.770;0.250;2023-10-31T01:35:27;9.00;99.90
5962;DHT22;3007;50.770;0.250;2023-10-31T01:37:54;9.10;99.90
5962;DHT22;3007;50.770;0.250;2023-10-31T01:40:21;9.10;99.90
5962;DHT22;3007;50.770;0.250;2023-10-31T01:42:48;9.20;99.90
5962;DHT22;3007;50.770;0.250;2023-10-31T01:45:15;9.30;99.90
5962;DHT22;3007;50.770;0.250;2023-10-31T01:47:43;9.40;99.90
5962;DHT22;3007;50.770;0.250;2023-10-31T01:50:13;9.70;99.90
5962;DHT22;3007;50.770;0.250;2023-10-31T01:52:40;9.50;99.90
5962;DHT22;3007;50.770;0.250;2023-10-31T01:55:08;9.60;99.90
5962;DHT22;3007;50.770;0.250;2023-10-31T01:57:35;9.70;99.90
5962;DHT22;3007;50.770;0.250;2023-10-31T02:00:03;9.80;99.90
5962;DHT22;3007;50.770;0.250;2023-10-31T02:02:32;9.90;99.90
5962;DHT22;3007;50.770;0.250;2023-10-31T02:04:59;10.00;99.90
5962;DHT22;3007;50.770;0.250;2023-10-31T02:07:28;10.10;99.90
5962;DHT22;3007;50.770;0.250;2023-10-31T02:09:54;10.00;99.90
5962;DHT22;3007;50.770;0.250;2023-10-31T02:12:31;10.10;99.90
5962;DHT22;3007;50.770;0.250;2023-10-31T02:14:58;10.00;99.90
5962;DHT22;3007;50.770;0.250;2023-10-31T02:17:25;10.10;99.90
5962;DHT22;3007;50.770;0.250;2023-10-31T02:19:52;10.00;99.90
5962;DHT22;3007;50.770;0.250;2023-10-31T02:22:20;10.00;99.90
5962;DHT22;3007;50.770;0.250;2023-10-31T07:57:12;11.10;99.90
5962;DHT22;3007;50.770;0.250;2023-10-31T07:59:40;11.10;99.90
5962;DHT22;3007;50.770;0.250;2023-10-31T08:02:07;11.10;99.90
5962;DHT22;3007;50.770;0.250;2023-10-31T08:04:33;11.10;99.90
5962;DHT22;3007;50.770;0.250;2023-10-31T08:07:00;11.10;99.90
5962;DHT22;3007;50.770;0.250;2023-10-31T08:09:27;11.20;99.90
5962;DHT22;3007;50.770;0.250;2023-10-31T08:11:54;11.20;99.90
5962;DHT22;3007;50.770;0.250;2023-10-31T08:14:22;11.20;99.90
5962;DHT22;3007;50.770;0.250;2023-10-31T08:16:49;11.30;99.90
5962;DHT22;3007;50.770;0.250;2023-10-31T08:19:15;11.30;99.90
5962;DHT22;3007;50.770;0.250;2023-10-31T08:21:42;11.30;99.90
5962;DHT22;3007;50.770;0.250;2023-10-31T08:24:09;11.30;99.90
5962;DHT22;3007;50.770;0.250;2023-10-31T08:26:36;13.90;99.90
5962;DHT22;3007;50.770;0.250;2023-10-31T08:29:03;11.40;99.90
5962;DHT22;3007;50.770;0.250;2023-10-31T08:31:31;11.30;99.90
5962;DHT22;3007;50.770;0.250;2023-10-31T08:33:58;11.30;99.90
5962;DHT22;3007;50.770;0.250;2023-10-31T08:36:25;11.30;99.90
5962;DHT22;3007;50.770;0.250;2023-10-31T08:38:51;11.30;99.90
5962;DHT22;3007;50.770;0.250;2023-10-31T08:41:18;11.20;99.90
5962;DHT22;3007;50.770;0.250;2023-10-31T08:43:45;12.40;99.90
5962;DHT22;3007;50.770;0.250;2023-10-31T08:46:12;11.30;99.90
5962;DHT22;3007;50.770;0.250;2023-10-31T08:48:40;11.30;99.90
5962;DHT22;3007;50.770;0.250;2023-10-31T08:51:07;11.20;99.90
5962;DHT22;3007;50.770;0.250;2023-10-31T08:53:34;11.20;99.90
5962;DHT22;3007;50.770;0.250;2023-10-31T08:56:01;11.20;99.90
5962;DHT22;3007;50.770;0.250;2023-10-31T08:58:28;11.30;99.90
5962;DHT22;3007;50.770;0.250;2023-10-31T09:00:55;11.30;99.90
5962;DHT22;3007;50.770;0.250;2023-10-31T09:03:22;11.30;99.90
5962;DHT22;3007;50.770;0.250;2023-10-31T09:05:50;11.40;99.90
5962;DHT22;3007;50.770;0.250;2023-10-31T09:08:17;11.50;99.90
5962;DHT22;3007;50.770;0.250;2023-10-31T09:10:44;11.60;99.90
5962;DHT22;3007;50.770;0.250;2023-10-31T09:13:12;11.70;99.90
5962;DHT22;3007;50.770;0.250;2023-10-31T09:15:39;11.70;99.90
5962;DHT22;3007;50.770;0.250;2023-10-31T09:18:06;11.80;99.90
5962;DHT22;3007;50.770;0.250;2023-10-31T09:20:33;11.90;99.90
5962;DHT22;3007;50.770;0.250;2023-10-31T09:23:02;12.00;99.90
5962;DHT22;3007;50.770;0.250;2023-10-31T09:25:28;12.10;99.90
5962;DHT22;3007;50.770;0.250;2023-10-31T09:27:55;12.00;99.90
5962;DHT22;3007;50.770;0.250;2023-10-31T09:30:24;12.10;99.90
5962;DHT22;3007;50.770;0.250;2023-10-31T09:32:51;12.20;99.90
5962;DHT22;3007;50.770;0.250;2023-10-31T09:37:45;12.30;99.90
5962;DHT22;3007;50.770;0.250;2023-10-31T09:40:15;12.30;99.90
5962;DHT22;3007;50.770;0.250;2023-10-31T09:42:43;12.30;99.90
5962;DHT22;3007;50.770;0.250;2023-10-31T09:45:10;12.30;99.90
5962;DHT22;3007;50.770;0.250;2023-10-31T09:47:37;12.30;99.90
5962;DHT22;3007;50.770;0.250;2023-10-31T09:50:05;12.30;99.90
5962;DHT22;3007;50.770;0.250;2023-10-31T09:52:32;12.30;99.90
5962;DHT22;3007;50.770;0.250;2023-10-31T09:55:01;12.40;99.90
5962;DHT22;3007;50.770;0.250;2023-10-31T09:57:29;12.50;99.90
5962;DHT22;3007;50.770;0.250;2023-10-31T09:59:56;12.40;99.90
5962;DHT22;3007;50.770;0.250;2023-10-31T10:02:23;12.40;99.90
5962;DHT22;3007;50.770;0.250;2023-10-31T10:04:50;12.40;99.90
5962;DHT22;3007;50.770;0.250;2023-10-31T10:07:18;12.50;99.90
5962;DHT22;3007;50.770;0.250;2023-10-31T10:09:46;12.50;99.90
5962;DHT22;3007;50.770;0.250;2023-10-31T10:12:13;12.50;99.90
5962;DHT22;3007;50.770;0.250;2023-10-31T10:14:44;12.60;99.90
5962;DHT22;3007;50.770;0.250;2023-10-31T10:17:15;12.60;99.90
5962;DHT22;3007;50.770;0.250;2023-10-31T10:19:42;12.80;99.90
5962;DHT22;3007;50.770;0.250;2023-10-31T10:22:10;12.60;99.90
5962;DHT22;3007;50.770;0.250;2023-10-31T10:24:39;12.80;99.90
5962;DHT22;3007;50.770;0.250;2023-10-31T10:27:07;12.90;99.90
5962;DHT22;3007;50.770;0.250;2023-10-31T10:29:34;13.00;99.90
5962;DHT22;3007;50.770;0.250;2023-10-31T10:32:05;13.00;99.90
5962;DHT22;3007;50.770;0.250;2023-10-31T10:34:33;13.00;99.90
5962;DHT22;3007;50.770;0.250;2023-10-31T10:37:01;12.90;99.90
5962;DHT22;3007;50.770;0.250;2023-10-31T10:39:32;13.00;99.90
5962;DHT22;3007;50.770;0.250;2023-10-31T10:42:01;13.00;99.90
5962;DHT22;3007;50.770;0.250;2023-10-31T10:44:32;13.10;99.90
5962;DHT22;3007;50.770;0.250;2023-10-31T10:47:03;13.10;99.90
5962;DHT22;3007;50.770;0.250;2023-10-31T10:49:33;13.30;99.90
5962;DHT22;3007;50.770;0.250;2023-10-31T10:52:06;13.40;99.90
5962;DHT22;3007;50.770;0.250;2023-10-31T10:54:40;13.50;99.90
5962;DHT22;3007;50.770;0.250;2023-10-31T10:57:14;13.70;99.90
5962;DHT22;3007;50.770;0.250;2023-10-31T10:59:42;13.80;99.90
5962;DHT22;3007;50.770;0.250;2023-10-31T11:02:12;14.00;99.90
5962;DHT22;3007;50.770;0.250;2023-10-31T11:04:42;14.20;99.90
5962;DHT22;3007;50.770;0.250;2023-10-31T11:07:10;14.60;99.90
5962;DHT22;3007;50.770;0.250;2023-10-31T11:09:37;14.70;99.90
5962;DHT22;3007;50.770;0.250;2023-10-31T11:12:05;14.80;99.90
5962;DHT22;3007;50.770;0.250;2023-10-31T11:14:33;14.80;99.90
5962;DHT22;3007;50.770;0.250;2023-10-31T11:17:09;14.70;99.90
5962;DHT22;3007;50.770;0.250;2023-10-31T11:19:39;14.70;99.90
5962;DHT22;3007;50.770;0.250;2023-10-31T11:22:06;14.60;99.90
5962;DHT22;3007;50.770;0.250;2023-10-31T11:24:35;14.60;99.90
5962;DHT22;3007;50.770;0.250;2023-10-31T11:27:05;14.60;99.90
5962;DHT22;3007;50.770;0.250;2023-10-31T11:29:32;14.50;99.90
5962;DHT22;3007;50.770;0.250;2023-10-31T11:31:59;14.40;99.90
5962;DHT22;3007;50.770;0.250;2023-10-31T11:34:27;14.20;99.90
5962;DHT22;3007;50.770;0.250;2023-10-31T11:37:21;14.30;99.90
5962;DHT22;3007;50.770;0.250;2023-10-31T11:40:20;14.20;99.90
5962;DHT22;3007;50.770;0.250;2023-10-31T11:42:48;14.20;99.90
5962;DHT22;3007;50.770;0.250;2023-10-31T11:45:32;14.10;99.90
5962;DHT22;3007;50.770;0.250;2023-10-31T11:48:00;14.10;99.90
5962;DHT22;3007;50.770;0.250;2023-10-31T11:50:27;13.90;99.90
5962;DHT22;3007;50.770;0.250;2023-10-31T11:53:03;14.00;99.90
5962;DHT22;3007;50.770;0.250;2023-10-31T11:55:32;14.00;99.90
5962;DHT22;3007;50.770;0.250;2023-10-31T11:58:12;14.10;99.90
5962;DHT22;3007;50.770;0.250;2023-10-31T12:00:41;14.20;99.90
5962;DHT22;3007;50.770;0.250;2023-10-31T12:03:08;15.50;99.90
5962;DHT22;3007;50.770;0.250;2023-10-31T12:05:35;14.60;99.90
5962;DHT22;3007;50.770;0.250;2023-10-31T12:08:03;14.60;99.90
5962;DHT22;3007;50.770;0.250;2023-10-31T12:10:30;14.70;99.90
5962;DHT22;3007;50.770;0.250;2023-10-31T12:12:57;14.70;99.90
5962;DHT22;3007;50.770;0.250;2023-10-31T12:15:25;14.80;99.90
5962;DHT22;3007;50.770;0.250;2023-10-31T12:17:52;14.80;99.90
5962;DHT22;3007;50.770;0.250;2023-10-31T12:20:18;15.00;99.90
5962;DHT22;3007;50.770;0.250;2023-10-31T12:23:02;14.70;99.90
5962;DHT22;3007;50.770;0.250;2023-10-31T12:25:30;14.60;99.90
5962;DHT22;3007;50.770;0.250;2023-10-31T12:28:00;14.70;99.90
5962;DHT22;3007;50.770;0.250;2023-10-31T12:30:30;14.50;99.90
5962;DHT22;3007;50.770;0.250;2023-10-31T12:33:00;14.60;99.90
5962;DHT22;3007;50.770;0.250;2023-10-31T12:35:30;14.60;99.90
5962;DHT22;3007;50.770;0.250;2023-10-31T12:37:57;14.70;99.90
5962;DHT22;3007;50.770;0.250;2023-10-31T12:40:27;14.70;99.90
5962;DHT22;3007;50.770;0.250;2023-10-31T12:42:54;14.70;99.90
5962;DHT22;3007;50.770;0.250;2023-10-31T12:45:21;14.60;99.90
5962;DHT22;3007;50.770;0.250;2023-10-31T12:48:00;14.60;99.90
5962;DHT22;3007;50.770;0.250;2023-10-31T12:50:28;14.60;99.90
5962;DHT22;3007;50.770;0.250;2023-10-31T12:52:55;14.40;99.90
5962;DHT22;3007;50.770;0.250;2023-10-31T12:55:26;14.40;99.90
5962;DHT22;3007;50.770;0.250;2023-10-31T12:57:55;14.40;99.90
5962;DHT22;3007;50.770;0.250;2023-10-31T13:00:22;14.50;99.90
5962;DHT22;3007;50.770;0.250;2023-10-31T13:02:59;14.50;99.90
5962;DHT22;3007;50.770;0.250;2023-10-31T13:05:27;14.50;99.90
5962;DHT22;3007;50.770;0.250;2023-10-31T13:07:55;14.50;99.90
5962;DHT22;3007;50.770;0.250;2023-10-31T13:10:23;14.40;99.90
5962;DHT22;3007;50.770;0.250;2023-10-31T13:12:52;11.90;99.90
5962;DHT22;3007;50.770;0.250;2023-10-31T13:15:20;14.20;99.90
5962;DHT22;3007;50.770;0.250;2023-10-31T13:17:48;14.20;99.90
5962;DHT22;3007;50.770;0.250;2023-10-31T13:20:17;14.20;99.90
5962;DHT22;3007;50.770;0.250;2023-10-31T13:22:44;14.20;99.90
5962;DHT22;3007;50.770;0.250;2023-10-31T13:25:15;14.00;99.90
5962;DHT22;3007;50.770;0.250;2023-10-31T13:27:43;14.30;99.90
5962;DHT22;3007;50.770;0.250;2023-10-31T13:30:15;14.10;99.90
5962;DHT22;3007;50.770;0.250;2023-10-31T13:32:43;14.10;99.90
5962;DHT22;3007;50.770;0.250;2023-10-31T13:35:12;14.00;99.90
5962;DHT22;3007;50.770;0.250;2023-10-31T13:37:40;13.90;99.90
5962;DHT22;3007;50.770;0.250;2023-10-31T13:40:08;13.90;99.90
5962;DHT22;3007;50.770;0.250;2023-10-31T13:42:35;13.90;99.90
5962;DHT22;3007;50.770;0.250;2023-10-31T13:45:02;13.80;99.90
5962;DHT22;3007;50.770;0.250;2023-10-31T13:47:30;13.90;99.90
5962;DHT22;3007;50.770;0.250;2023-10-31T13:49:58;13.90;99.90
5962;DHT22;3007;50.770;0.250;2023-10-31T13:52:25;14.10;99.90
5962;DHT22;3007;50.770;0.250;2023-10-31T13:54:52;13.90;99.90
5962;DHT22;3007;50.770;0.250;2023-10-31T13:57:19;14.00;99.90
5962;DHT22;3007;50.770;0.250;2023-10-31T13:59:46;14.00;99.90
5962;DHT22;3007;50.770;0.250;2023-10-31T14:02:15;14.00;99.90
5962;DHT22;3007;50.770;0.250;2023-10-31T14:04:47;14.00;99.90
5962;DHT22;3007;50.770;0.250;2023-10-31T14:07:20;14.00;99.90
5962;DHT22;3007;50.770;0.250;2023-10-31T14:09:48;13.90;99.90
5962;DHT22;3007;50.770;0.250;2023-10-31T14:12:15;14.00;99.90
5962;DHT22;3007;50.770;0.250;2023-10-31T14:14:42;14.10;99.90
5962;DHT22;3007;50.770;0.250;2023-10-31T14:17:08;14.10;99.90
5962;DHT22;3007;50.770;0.250;2023-10-31T14:19:36;14.20;99.90
5962;DHT22;3007;50.770;0.250;2023-10-31T14:22:05;14.20;99.90
5962;DHT22;3007;50.770;0.250;2023-10-31T14:24:32;14.20;99.90
5962;DHT22;3007;50.770;0.250;2023-10-31T14:26:59;14.20;99.90
5962;DHT22;3007;50.770;0.250;2023-10-31T14:29:26;14.30;99.90
5962;DHT22;3007;50.770;0.250;2023-10-31T14:31:53;14.20;99.90
5962;DHT22;3007;50.770;0.250;2023-10-31T14:34:21;14.20;99.90
5962;DHT22;3007;50.770;0.250;2023-10-31T14:36:48;16.40;99.90
5962;DHT22;3007;50.770;0.250;2023-10-31T14:39:16;14.20;99.90
5962;DHT22;3007;50.770;0.250;2023-10-31T14:41:43;14.30;99.90
5962;DHT22;3007;50.770;0.250;2023-10-31T14:44:10;14.30;99.90
5962;DHT22;3007;50.770;0.250;2023-10-31T14:46:36;14.30;99.90
5962;DHT22;3007;50.770;0.250;2023-10-31T14:49:03;14.30;99.90
5962;DHT22;3007;50.770;0.250;2023-10-31T14:51:30;14.30;99.90
5962;DHT22;3007;50.770;0.250;2023-10-31T14:53:57;14.30;99.90
5962;DHT22;3007;50.770;0.250;2023-10-31T14:56:26;14.30;99.90
5962;DHT22;3007;50.770;0.250;2023-10-31T14:58:55;14.30;99.90
5962;DHT22;3007;50.770;0.250;2023-10-31T15:01:22;14.30;99.90
5962;DHT22;3007;50.770;0.250;2023-10-31T15:03:49;14.30;99.90
5962;DHT22;3007;50.770;0.250;2023-10-31T15:06:18;14.20;99.90
5962;DHT22;3007;50.770;0.250;2023-10-31T15:08:44;14.10;99.90
5962;DHT22;3007;50.770;0.250;2023-10-31T15:11:11;14.10;99.90
5962;DHT22;3007;50.770;0.250;2023-10-31T15:13:40;14.10;99.90
5962;DHT22;3007;50.770;0.250;2023-10-31T15:16:07;14.10;99.90
5962;DHT22;3007;50.770;0.250;2023-10-31T15:18:34;14.10;99.90
5962;DHT22;3007;50.770;0.250;2023-10-31T15:21:01;14.20;99.90
5962;DHT22;3007;50.770;0.250;2023-10-31T15:23:28;14.20;99.90
5962;DHT22;3007;50.770;0.250;2023-10-31T15:25:56;14.20;99.90
5962;DHT22;3007;50.770;0.250;2023-10-31T15:28:23;14.20;99.90
5962;DHT22;3007;50.770;0.250;2023-10-31T15:30:52;14.20;99.90
5962;DHT22;3007;50.770;0.250;2023-10-31T15:33:19;14.30;99.90
5962;DHT22;3007;50.770;0.250;2023-10-31T15:35:45;14.20;99.90
5962;DHT22;3007;50.770;0.250;2023-10-31T15:38:12;14.30;99.90
5962;DHT22;3007;50.770;0.250;2023-10-31T15:40:41;14.20;99.90
5962;DHT22;3007;50.770;0.250;2023-10-31T15:43:08;14.50;99.90
5962;DHT22;3007;50.770;0.250;2023-10-31T15:45:34;14.30;99.90
5962;DHT22;3007;50.770;0.250;2023-10-31T15:48:07;14.30;99.90
5962;DHT22;3007;50.770;0.250;2023-10-31T15:50:34;14.20;99.90
5962;DHT22;3007;50.770;0.250;2023-10-31T15:53:02;14.20;99.90
5962;DHT22;3007;50.770;0.250;2023-10-31T15:55:29;14.10;99.90
5962;DHT22;3007;50.770;0.250;2023-10-31T15:57:56;14.10;99.90
5962;DHT22;3007;50.770;0.250;2023-10-31T16:00:23;14.10;99.90
5962;DHT22;3007;50.770;0.250;2023-10-31T16:02:53;14.10;99.90
5962;DHT22;3007;50.770;0.250;2023-10-31T16:05:24;14.00;99.90
5962;DHT22;3007;50.770;0.250;2023-10-31T16:07:51;14.00;99.90
5962;DHT22;3007;50.770;0.250;2023-10-31T16:10:18;14.10;99.90
5962;DHT22;3007;50.770;0.250;2023-10-31T16:12:45;14.20;99.90
5962;DHT22;3007;50.770;0.250;2023-10-31T16:15:12;14.10;99.90
5962;DHT22;3007;50.770;0.250;2023-10-31T16:17:39;14.00;99.90
5962;DHT22;3007;50.770;0.250;2023-10-31T16:20:06;14.00;99.90
5962;DHT22;3007;50.770;0.250;2023-10-31T16:22:35;14.00;99.90
5962;DHT22;3007;50.770;0.250;2023-10-31T16:25:02;14.00;99.90
5962;DHT22;3007;50.770;0.250;2023-10-31T16:27:29;13.90;99.90
5962;DHT22;3007;50.770;0.250;2023-10-31T16:29:55;13.90;99.90
5962;DHT22;3007;50.770;0.250;2023-10-31T16:32:22;14.00;99.90
5962;DHT22;3007;50.770;0.250;2023-10-31T16:34:49;13.80;99.90
5962;DHT22;3007;50.770;0.250;2023-10-31T16:37:17;13.70;99.90
5962;DHT22;3007;50.770;0.250;2023-10-31T16:39:45;13.70;99.90
5962;DHT22;3007;50.770;0.250;2023-10-31T16:42:12;13.70;99.90
5962;DHT22;3007;50.770;0.250;2023-10-31T16:44:40;13.70;99.90
5962;DHT22;3007;50.770;0.250;2023-10-31T16:47:06;13.60;99.90
5962;DHT22;3007;50.770;0.250;2023-10-31T16:49:33;13.70;99.90
5962;DHT22;3007;50.770;0.250;2023-10-31T16:52:00;13.70;99.90
5962;DHT22;3007;50.770;0.250;2023-10-31T16:54:27;13.70;99.90
5962;DHT22;3007;50.770;0.250;2023-10-31T16:56:56;13.70;99.90
5962;DHT22;3007;50.770;0.250;2023-10-31T16:59:23;15.10;99.90
5962;DHT22;3007;50.770;0.250;2023-10-31T17:01:49;13.60;99.90
5962;DHT22;3007;50.770;0.250;2023-10-31T17:04:16;13.70;99.90
5962;DHT22;3007;50.770;0.250;2023-10-31T17:06:43;13.70;99.90
5962;DHT22;3007;50.770;0.250;2023-10-31T17:09:10;13.70;99.90
5962;DHT22;3007;50.770;0.250;2023-10-31T17:11:37;13.90;99.90
5962;DHT22;3007;50.770;0.250;2023-10-31T17:14:05;13.70;99.90
5962;DHT22;3007;50.770;0.250;2023-10-31T17:16:32;13.70;99.90
5962;DHT22;3007;50.770;0.250;2023-10-31T17:18:59;13.30;99.90
5962;DHT22;3007;50.770;0.250;2023-10-31T17:21:25;13.70;99.90
5962;DHT22;3007;50.770;0.250;2023-10-31T17:23:52;13.70;99.90
5962;DHT22;3007;50.770;0.250;2023-10-31T17:26:19;13.70;99.90
5962;DHT22;3007;50.770;0.250;2023-10-31T17:28:46;13.70;99.90
5962;DHT22;3007;50.770;0.250;2023-10-31T17:31:14;13.60;99.90
5962;DHT22;3007;50.770;0.250;2023-10-31T17:33:41;13.60;99.90
5962;DHT22;3007;50.770;0.250;2023-10-31T17:36:09;13.60;99.90
5962;DHT22;3007;50.770;0.250;2023-10-31T17:38:36;13.50;99.90
5962;DHT22;3007;50.770;0.250;2023-10-31T17:41:04;13.50;99.90
5962;DHT22;3007;50.770;0.250;2023-10-31T17:43:31;13.50;99.90
5962;DHT22;3007;50.770;0.250;2023-10-31T17:45:57;13.50;99.90
5962;DHT22;3007;50.770;0.250;2023-10-31T17:48:25;13.50;99.90
5962;DHT22;3007;50.770;0.250;2023-10-31T17:50:55;13.50;99.90
5962;DHT22;3007;50.770;0.250;2023-10-31T17:53:22;13.50;99.90
5962;DHT22;3007;50.770;0.250;2023-10-31T17:55:50;13.50;99.90
5962;DHT22;3007;50.770;0.250;2023-10-31T17:58:20;13.50;99.90
5962;DHT22;3007;50.770;0.250;2023-10-31T18:00:47;13.40;99.90
5962;DHT22;3007;50.770;0.250;2023-10-31T18:03:14;13.40;99.90
5962;DHT22;3007;50.770;0.250;2023-10-31T18:05:45;13.40;99.90
5962;DHT22;3007;50.770;0.250;2023-10-31T18:08:12;13.30;99.90
5962;DHT22;3007;50.770;0.250;2023-10-31T18:10:39;13.30;99.90
5962;DHT22;3007;50.770;0.250;2023-10-31T18:13:05;13.30;99.90
5962;DHT22;3007;50.770;0.250;2023-10-31T18:15:32;13.30;99.90
5962;DHT22;3007;50.770;0.250;2023-10-31T18:17:59;13.20;99.90
5962;DHT22;3007;50.770;0.250;2023-10-31T18:20:26;13.40;99.90
5962;DHT22;3007;50.770;0.250;2023-10-31T18:22:54;13.40;99.90
5962;DHT22;3007;50.770;0.250;2023-10-31T18:25:21;13.20;99.90
5962;DHT22;3007;50.770;0.250;2023-10-31T18:27:48;13.10;99.90
5962;DHT22;3007;50.770;0.250;2023-10-31T18:30:15;13.30;99.90
5962;DHT22;3007;50.770;0.250;2023-10-31T18:32:45;13.20;99.90
5962;DHT22;3007;50.770;0.250;2023-10-31T18:35:12;13.20;99.90
5962;DHT22;3007;50.770;0.250;2023-10-31T18:37:39;13.50;99.90
5962;DHT22;3007;50.770;0.250;2023-10-31T18:40:10;13.20;99.90
5962;DHT22;3007;50.770;0.250;2023-10-31T18:42:38;13.20;99.90
5962;DHT22;3007;50.770;0.250;2023-10-31T18:45:08;13.30;99.90
5962;DHT22;3007;50.770;0.250;2023-10-31T18:47:39;13.30;99.90
5962;DHT22;3007;50.770;0.250;2023-10-31T18:50:07;13.20;99.90
5962;DHT22;3007;50.770;0.250;2023-10-31T18:52:34;13.20;99.90
5962;DHT22;3007;50.770;0.250;2023-10-31T18:55:01;13.20;99.90
5962;DHT22;3007;50.770;0.250;2023-10-31T18:57:32;13.20;99.90
5962;DHT22;3007;50.770;0.250;2023-10-31T18:59:59;13.20;99.90
5962;DHT22;3007;50.770;0.250;2023-10-31T19:02:28;13.10;99.90
5962;DHT22;3007;50.770;0.250;2023-10-31T19:04:55;13.10;99.90
5962;DHT22;3007;50.770;0.250;2023-10-31T19:07:25;13.00;99.90
5962;DHT22;3007;50.770;0.250;2023-10-31T19:09:51;13.00;99.90
5962;DHT22;3007;50.770;0.250;2023-10-31T19:12:25;13.00;99.90
5962;DHT22;3007;50.770;0.250;2023-10-31T19:14:57;13.00;99.90
5962;DHT22;3007;50.770;0.250;2023-10-31T19:17:23;13.10;99.90
5962;DHT22;3007;50.770;0.250;2023-10-31T19:19:50;13.20;99.90
5962;DHT22;3007;50.770;0.250;2023-10-31T19:22:17;13.10;99.90
5962;DHT22;3007;50.770;0.250;2023-10-31T19:24:44;13.00;99.90
5962;DHT22;3007;50.770;0.250;2023-10-31T19:27:12;13.00;99.90
5962;DHT22;3007;50.770;0.250;2023-10-31T19:29:39;13.00;99.90
5962;DHT22;3007;50.770;0.250;2023-10-31T19:32:07;13.10;99.90
5962;DHT22;3007;50.770;0.250;2023-10-31T19:34:34;13.10;99.90
5962;DHT22;3007;50.770;0.250;2023-10-31T19:37:02;13.10;99.90
5962;DHT22;3007;50.770;0.250;2023-10-31T19:39:30;13.10;99.90
5962;DHT22;3007;50.770;0.250;2023-10-31T19:41:57;13.10;99.90
5962;DHT22;3007;50.770;0.250;2023-10-31T19:44:25;13.10;99.90
5962;DHT22;3007;50.770;0.250;2023-10-31T19:46:52;13.10;99.90
5962;DHT22;3007;50.770;0.250;2023-10-31T19:49:20;13.00;99.90
5962;DHT22;3007;50.770;0.250;2023-10-31T19:51:47;13.00;99.90
5962;DHT22;3007;50.770;0.250;2023-10-31T19:54:14;15.00;99.90
5962;DHT22;3007;50.770;0.250;2023-10-31T19:56:41;13.10;99.90
5962;DHT22;3007;50.770;0.250;2023-10-31T19:59:13;13.10;99.90
5962;DHT22;3007;50.770;0.250;2023-10-31T20:01:42;13.40;99.90
5962;DHT22;3007;50.770;0.250;2023-10-31T20:04:08;13.20;99.90
5962;DHT22;3007;50.770;0.250;2023-10-31T20:06:37;13.10;99.90
5962;DHT22;3007;50.770;0.250;2023-10-31T20:09:04;13.10;99.90
5962;DHT22;3007;50.770;0.250;2023-10-31T20:11:31;13.10;99.90
5962;DHT22;3007;50.770;0.250;2023-10-31T20:13:58;13.00;99.90
5962;DHT22;3007;50.770;0.250;2023-10-31T20:16:25;13.20;99.90
5962;DHT22;3007;50.770;0.250;2023-10-31T20:18:52;13.80;99.90
5962;DHT22;3007;50.770;0.250;2023-10-31T20:21:19;13.10;99.90
5962;DHT22;3007;50.770;0.250;2023-10-31T20:23:49;13.10;99.90
5962;DHT22;3007;50.770;0.250;2023-10-31T20:26:16;13.10;99.90
5962;DHT22;3007;50.770;0.250;2023-10-31T20:28:45;13.10;99.90
5962;DHT22;3007;50.770;0.250;2023-10-31T20:31:12;13.00;99.90
5962;DHT22;3007;50.770;0.250;2023-10-31T20:33:42;13.00;99.90
5962;DHT22;3007;50.770;0.250;2023-10-31T20:36:09;13.00;99.90
5962;DHT22;3007;50.770;0.250;2023-10-31T20:38:37;13.10;99.90
5962;DHT22;3007;50.770;0.250;2023-10-31T20:41:06;13.00;99.90
5962;DHT22;3007;50.770;0.250;2023-10-31T20:43:33;14.10;99.90
5962;DHT22;3007;50.770;0.250;2023-10-31T20:46:03;13.00;99.90
5962;DHT22;3007;50.770;0.250;2023-10-31T20:48:30;13.00;99.90
5962;DHT22;3007;50.770;0.250;2023-10-31T20:50:57;13.10;99.90
5962;DHT22;3007;50.770;0.250;2023-10-31T20:53:24;13.10;99.90
5962;DHT22;3007;50.770;0.250;2023-10-31T20:55:51;13.00;99.90
5962;DHT22;3007;50.770;0.250;2023-10-31T20:58:19;13.10;99.90
5962;DHT22;3007;50.770;0.250;2023-10-31T21:00:47;13.10;99.90
5962;DHT22;3007;50.770;0.250;2023-10-31T21:03:15;14.00;99.90
5962;DHT22;3007;50.770;0.250;2023-10-31T21:05:42;13.50;99.90
5962;DHT22;3007;50.770;0.250;2023-10-31T21:08:09;13.10;99.90
5962;DHT22;3007;50.770;0.250;2023-10-31T21:10:35;13.40;99.90
5962;DHT22;3007;50.770;0.250;2023-10-31T21:13:02;13.10;99.90
5962;DHT22;3007;50.770;0.250;2023-10-31T21:15:31;13.00;99.90
5962;DHT22;3007;50.770;0.250;2023-10-31T21:17:58;13.50;99.90
5962;DHT22;3007;50.770;0.250;2023-10-31T21:20:25;13.10;99.90
5962;DHT22;3007;50.770;0.250;2023-10-31T21:22:56;13.30;99.90
5962;DHT22;3007;50.770;0.250;2023-10-31T21:25:23;13.00;99.90
5962;DHT22;3007;50.770;0.250;2023-10-31T21:27:50;13.80;99.90
5962;DHT22;3007;50.770;0.250;2023-10-31T21:30:17;12.90;99.90
5962;DHT22;3007;50.770;0.250;2023-10-31T21:32:46;12.90;99.90
5962;DHT22;3007;50.770;0.250;2023-10-31T21:35:14;12.80;99.90
5962;DHT22;3007;50.770;0.250;2023-10-31T21:37:42;12.80;99.90
5962;DHT22;3007;50.770;0.250;2023-10-31T21:40:09;15.40;99.90
5962;DHT22;3007;50.770;0.250;2023-10-31T21:42:37;12.70;99.90
5962;DHT22;3007;50.770;0.250;2023-10-31T21:45:05;13.80;99.90